createdAt,value
2022-08-02T00:01:22.688Z,8.80
2022-08-02T00:03:50.622Z,5.90
2022-08-02T00:06:18.535Z,7.70
2022-08-02T00:08:46.547Z,7.00
2022-08-02T00:11:14.502Z,5.90
2022-08-02T00:13:42.406Z,5.80
2022-08-02T00:16:10.283Z,4.80
2022-08-02T00:18:45.075Z,5.00
2022-08-02T00:21:13.675Z,7.50
2022-08-02T00:24:04.950Z,6.90
2022-08-02T00:26:30.692Z,5.50
2022-08-02T00:28:58.548Z,5.40
2022-08-02T00:31:26.448Z,7.30
2022-08-02T00:34:28.313Z,6.80
2022-08-02T00:36:42.274Z,5.60
2022-08-02T00:39:33.587Z,5.40
2022-08-02T00:41:58.094Z,7.60
2022-08-02T00:44:25.990Z,8.60
2022-08-02T00:46:53.794Z,6.00
2022-08-02T00:49:21.618Z,5.80
2022-08-02T00:51:49.499Z,6.20
2022-08-02T00:54:17.362Z,8.40
2022-08-02T00:56:50.038Z,7.10
2022-08-02T00:59:19.246Z,8.60
2022-08-02T01:01:57.385Z,7.00
2022-08-02T01:04:31.340Z,7.10
2022-08-02T01:07:01.663Z,7.90
2022-08-02T01:09:29.612Z,7.10
2022-08-02T01:11:57.748Z,5.90
2022-08-02T01:14:30.728Z,9.20
2022-08-02T01:17:39.678Z,5.60
2022-08-02T01:20:48.064Z,7.50
2022-08-02T01:24:16.214Z,6.60
2022-08-02T01:26:53.413Z,8.20
2022-08-02T01:29:36.110Z,6.10
2022-08-02T01:34:58.816Z,6.70
2022-08-02T01:37:44.818Z,6.60
2022-08-02T01:40:20.611Z,6.80
2022-08-02T01:42:53.314Z,9.20
2022-08-02T01:45:24.312Z,7.70
2022-08-02T01:47:52.939Z,6.10
2022-08-02T01:50:29.571Z,6.90
2022-08-02T01:53:00.511Z,6.80
2022-08-02T01:55:35.063Z,7.60
2022-08-02T02:00:49.881Z,6.80
2022-08-02T02:03:24.758Z,8.30
2022-08-02T02:05:57.550Z,6.50
2022-08-02T02:08:31.773Z,9.10
2022-08-02T02:12:11.760Z,8.50
2022-08-02T02:13:50.326Z,10.20
2022-08-02T02:16:20.444Z,5.70
2022-08-02T02:18:49.262Z,8.80
2022-08-02T02:21:17.089Z,9.70
2022-08-02T02:23:45.133Z,6.60
2022-08-02T02:26:17.550Z,6.40
2022-08-02T02:28:59.727Z,7.60
2022-08-02T02:31:30.449Z,6.40
2022-08-02T02:34:13.436Z,7.10
2022-08-02T02:36:46.952Z,6.90
2022-08-02T02:39:16.109Z,7.30
2022-08-02T02:41:44.753Z,9.10
2022-08-02T02:44:17.632Z,7.60
2022-08-02T02:46:48.501Z,6.10
2022-08-02T02:49:18.271Z,10.20
2022-08-02T02:51:46.306Z,5.80
2022-08-02T02:54:30.158Z,7.70
2022-08-02T02:57:05.226Z,6.40
2022-08-02T02:59:43.096Z,7.50
2022-08-02T03:02:18.994Z,8.90
2022-08-02T03:04:56.944Z,6.90
2022-08-02T03:07:27.096Z,7.40
2022-08-02T03:09:55.429Z,7.10
2022-08-02T03:12:30.825Z,7.00
2022-08-02T03:15:02.342Z,8.00
2022-08-02T03:17:45.656Z,6.30
2022-08-02T03:20:19.416Z,7.60
2022-08-02T03:22:47.768Z,4.90
2022-08-02T03:25:17.574Z,8.00
2022-08-02T03:27:45.792Z,6.70
2022-08-02T03:30:15.301Z,7.60
2022-08-02T03:32:47.789Z,6.80
2022-08-02T03:37:54.505Z,7.60
2022-08-02T03:40:23.339Z,6.60
2022-08-02T03:42:51.701Z,6.20
2022-08-02T03:45:20.299Z,5.80
2022-08-02T03:47:48.319Z,8.10
2022-08-02T03:50:16.667Z,8.50
2022-08-02T03:52:45.720Z,6.50
2022-08-02T03:55:14.067Z,5.60
2022-08-02T03:57:42.990Z,5.50
2022-08-02T04:00:15.626Z,6.10
2022-08-02T04:02:43.610Z,6.60
2022-08-02T04:05:11.570Z,5.90
2022-08-02T04:08:32.703Z,6.40
2022-08-02T04:10:27.361Z,7.10
2022-08-02T04:12:55.942Z,6.10
2022-08-02T04:15:24.654Z,5.60
2022-08-02T04:17:59.478Z,5.50
2022-08-02T04:20:31.696Z,5.20
2022-08-02T04:23:08.298Z,6.50
2022-08-02T04:25:40.295Z,5.80
2022-08-02T04:28:16.947Z,5.10
2022-08-02T04:30:50.090Z,5.90
2022-08-02T04:33:18.400Z,5.90
2022-08-02T04:35:46.261Z,4.80
2022-08-02T04:38:15.812Z,5.80
2022-08-02T04:40:55.550Z,6.30
2022-08-02T04:43:24.214Z,5.40
2022-08-02T04:45:54.774Z,4.80
2022-08-02T04:48:23.631Z,7.30
2022-08-02T04:50:52.209Z,8.20
2022-08-02T04:53:20.120Z,4.60
2022-08-02T04:55:47.953Z,5.80
2022-08-02T04:58:39.393Z,6.30
2022-08-02T05:01:04.181Z,4.80
2022-08-02T05:03:32.163Z,7.80
2022-08-02T05:06:03.741Z,5.80
2022-08-02T05:08:41.091Z,5.60
2022-08-02T05:11:09.125Z,5.80
2022-08-02T05:13:58.522Z,6.70
2022-08-02T05:16:30.695Z,5.00
2022-08-02T05:19:02.010Z,5.30
2022-08-02T05:21:32.026Z,8.60
2022-08-02T05:24:00.145Z,4.90
2022-08-02T05:26:27.949Z,4.10
2022-08-02T05:28:55.814Z,4.90
2022-08-02T05:31:23.966Z,4.50
2022-08-02T05:33:51.823Z,7.60
2022-08-02T05:36:21.698Z,6.00
2022-08-02T05:38:51.230Z,7.60
2022-08-02T05:41:20.608Z,6.30
2022-08-02T05:43:48.510Z,7.50
2022-08-02T05:46:16.561Z,5.60
2022-08-02T05:48:45.759Z,7.40
2022-08-02T05:51:38.217Z,11.10
2022-08-02T05:54:16.715Z,5.90
2022-08-02T05:56:55.809Z,6.40
2022-08-02T05:59:41.118Z,7.20
2022-08-02T06:02:39.531Z,4.70
2022-08-02T06:05:15.991Z,6.80
2022-08-02T06:07:45.585Z,6.40
2022-08-02T06:10:16.890Z,9.20
2022-08-02T06:13:16.528Z,4.90
2022-08-02T06:15:53.436Z,4.70
2022-08-02T06:18:28.524Z,6.60
2022-08-02T06:22:33.202Z,5.60
2022-08-02T06:23:57.743Z,5.60
2022-08-02T06:26:28.593Z,5.60
2022-08-02T06:28:59.483Z,3.80
2022-08-02T06:31:27.626Z,5.10
2022-08-02T06:33:56.335Z,3.90
2022-08-02T06:36:42.950Z,6.90
2022-08-02T06:39:20.451Z,8.60
2022-08-02T06:41:50.318Z,6.40
2022-08-02T06:47:12.362Z,8.90
2022-08-02T06:49:52.541Z,7.20
2022-08-02T06:52:28.709Z,5.80
2022-08-02T06:55:03.964Z,5.00
2022-08-02T06:57:32.990Z,8.30
2022-08-02T07:00:02.686Z,4.60
2022-08-02T07:02:31.892Z,6.90
2022-08-02T07:05:01.437Z,9.80
2022-08-02T07:07:29.531Z,4.10
2022-08-02T07:10:01.221Z,4.90
2022-08-02T07:12:32.218Z,3.90
2022-08-02T07:15:07.370Z,7.50
2022-08-02T07:17:36.111Z,5.10
2022-08-02T07:20:04.755Z,7.80
2022-08-02T07:22:32.839Z,4.80
2022-08-02T07:25:01.928Z,3.90
2022-08-02T07:27:30.259Z,6.00
2022-08-02T07:29:59.031Z,5.50
2022-08-02T07:32:30.298Z,5.10
2022-08-02T07:35:00.061Z,6.60
2022-08-02T07:37:53.239Z,6.30
2022-08-02T07:40:22.399Z,3.70
2022-08-02T07:42:57.888Z,6.30
2022-08-02T07:45:28.288Z,4.10
2022-08-02T07:47:57.063Z,4.90
2022-08-02T07:50:24.998Z,4.90
2022-08-02T07:52:57.217Z,3.50
2022-08-02T07:55:33.382Z,3.90
2022-08-02T08:00:43.941Z,5.80
2022-08-02T08:03:12.295Z,3.20
2022-08-02T08:05:40.881Z,5.40
2022-08-02T08:08:16.953Z,8.10
2022-08-02T08:22:55.058Z,4.50
2022-08-02T08:25:22.991Z,3.30
2022-08-02T08:27:55.082Z,2.20
2022-08-02T08:30:23.207Z,4.80
2022-08-02T08:32:51.126Z,5.60
2022-08-02T08:35:19.289Z,4.30
2022-08-02T08:37:49.629Z,4.30
2022-08-02T08:40:19.751Z,3.60
2022-08-02T08:42:48.098Z,3.90
2022-08-02T08:45:18.124Z,4.40
2022-08-02T08:47:53.385Z,3.00
2022-08-02T08:50:26.121Z,4.20
2022-08-02T08:53:02.913Z,5.00
2022-08-02T08:55:32.108Z,5.10
2022-08-02T08:58:01.480Z,3.80
2022-08-02T09:00:35.926Z,4.00
2022-08-02T09:03:08.677Z,3.90
2022-08-02T09:05:40.093Z,6.90
2022-08-02T09:08:11.277Z,3.50
2022-08-02T09:10:45.073Z,4.40
2022-08-02T09:13:44.942Z,5.70
2022-08-02T09:16:14.827Z,5.90
2022-08-02T09:18:46.917Z,5.30
2022-08-02T09:21:22.139Z,7.30
2022-08-02T09:23:57.600Z,3.40
2022-08-02T09:26:26.948Z,5.30
2022-08-02T09:29:02.147Z,6.10
2022-08-02T09:31:30.002Z,6.00
2022-08-02T09:33:59.867Z,4.60
2022-08-02T09:36:44.543Z,4.80
2022-08-02T09:39:15.824Z,6.20
2022-08-02T09:41:45.605Z,3.30
2022-08-02T09:44:16.263Z,4.50
2022-08-02T09:46:47.638Z,10.00
2022-08-02T09:49:18.549Z,7.10
2022-08-02T09:51:49.249Z,6.60
2022-08-02T09:54:36.537Z,3.30
2022-08-02T09:57:04.576Z,5.10
2022-08-02T09:59:32.815Z,4.20
2022-08-02T10:02:17.129Z,3.30
2022-08-02T10:04:53.303Z,7.30
2022-08-02T10:07:23.369Z,6.10
2022-08-02T10:09:52.411Z,2.50
2022-08-02T10:12:23.155Z,6.90
2022-08-02T10:14:52.177Z,4.70
2022-08-02T10:17:21.291Z,4.70
2022-08-02T10:20:01.978Z,3.70
2022-08-02T10:22:35.009Z,4.50
2022-08-02T10:25:05.314Z,4.00
2022-08-02T10:28:02.398Z,4.00
2022-08-02T10:30:24.732Z,5.30
2022-08-02T10:32:54.316Z,8.80
2022-08-02T10:35:25.621Z,2.60
2022-08-02T10:38:03.932Z,4.10
2022-08-02T10:40:44.474Z,3.40
2022-08-02T10:43:14.278Z,4.00
2022-08-02T10:45:42.234Z,6.00
2022-08-02T10:48:15.274Z,3.50
2022-08-02T10:50:49.416Z,4.50
2022-08-02T10:53:29.499Z,4.30
2022-08-02T10:56:03.815Z,4.90
2022-08-02T10:58:35.047Z,5.60
2022-08-02T11:01:26.845Z,9.90
2022-08-02T11:04:10.588Z,6.70
2022-08-02T11:07:17.682Z,5.50
2022-08-02T11:09:48.338Z,3.80
2022-08-02T11:12:21.539Z,5.40
2022-08-02T11:15:07.766Z,4.70
2022-08-02T11:17:56.869Z,2.80
2022-08-02T11:20:27.395Z,4.00
2022-08-02T11:23:44.046Z,3.80
2022-08-02T11:26:32.105Z,4.20
2022-08-02T11:29:03.564Z,5.00
2022-08-02T11:31:40.862Z,5.00
2022-08-02T11:34:10.122Z,4.90
2022-08-02T11:36:50.700Z,5.60
2022-08-02T11:39:21.727Z,3.50
2022-08-02T11:41:58.891Z,4.20
2022-08-02T11:44:28.989Z,4.70
2022-08-02T11:47:03.357Z,5.10
2022-08-02T11:49:31.594Z,5.50
2022-08-02T11:52:06.437Z,6.10
2022-08-02T11:54:40.617Z,3.50
2022-08-02T11:57:21.453Z,6.50
2022-08-02T11:59:53.469Z,5.50
2022-08-02T12:02:31.679Z,2.70
2022-08-02T12:05:03.146Z,5.00
2022-08-02T12:07:46.093Z,4.20
2022-08-02T12:10:24.494Z,2.60
2022-08-02T12:12:58.351Z,6.30
2022-08-02T12:15:45.400Z,5.60
2022-08-02T12:18:38.048Z,4.50
2022-08-02T12:21:23.661Z,3.90
2022-08-02T12:23:59.347Z,5.50
2022-08-02T12:26:30.787Z,4.80
2022-08-02T12:28:59.896Z,5.40
2022-08-02T12:31:56.017Z,3.60
2022-08-02T12:34:31.493Z,6.20
2022-08-02T12:37:08.077Z,3.30
2022-08-02T12:39:46.431Z,4.20
2022-08-02T12:42:16.287Z,5.00
2022-08-02T12:44:59.282Z,6.50
2022-08-02T12:47:35.642Z,5.30
2022-08-02T12:50:37.278Z,2.60
2022-08-02T12:53:08.148Z,2.90
2022-08-02T12:56:02.085Z,4.40
2022-08-02T12:58:31.205Z,4.30
2022-08-02T13:01:01.474Z,4.00
2022-08-02T13:04:07.702Z,3.80
2022-08-02T13:09:17.241Z,2.10
2022-08-02T13:11:45.718Z,4.30
2022-08-02T13:14:14.323Z,3.50
2022-08-02T13:16:46.091Z,6.60
2022-08-02T13:19:15.779Z,2.10
2022-08-02T13:22:01.906Z,3.20
2022-08-02T13:24:40.780Z,4.60
2022-08-02T13:27:21.611Z,4.50
2022-08-02T13:29:51.673Z,5.00
2022-08-02T13:32:20.786Z,4.10
2022-08-02T13:34:49.079Z,4.90
2022-08-02T13:37:18.633Z,3.90
2022-08-02T13:40:05.499Z,4.90
2022-08-02T13:42:34.534Z,3.60
2022-08-02T13:45:12.969Z,3.60
2022-08-02T13:48:04.527Z,5.80
2022-08-02T13:50:33.175Z,3.60
2022-08-02T13:53:01.199Z,4.80
2022-08-02T13:55:29.248Z,5.80
2022-08-02T13:57:57.820Z,3.40
2022-08-02T14:00:35.555Z,2.30
2022-08-02T14:03:07.110Z,5.00
2022-08-02T14:05:48.166Z,2.50
2022-08-02T14:08:18.660Z,3.40
2022-08-02T14:10:47.894Z,4.80
2022-08-02T14:13:16.869Z,5.10
2022-08-02T14:15:47.751Z,4.60
2022-08-02T14:18:15.741Z,3.00
2022-08-02T14:20:45.278Z,2.90
2022-08-02T14:23:13.314Z,4.30
2022-08-02T14:25:41.369Z,4.60
2022-08-02T14:28:09.464Z,4.00
2022-08-02T14:30:37.549Z,3.40
2022-08-02T14:33:05.539Z,5.70
2022-08-02T14:35:33.585Z,2.10
2022-08-02T14:38:01.493Z,5.20
2022-08-02T14:40:31.766Z,2.60
2022-08-02T14:43:02.934Z,4.10
2022-08-02T14:45:39.764Z,3.10
2022-08-02T14:48:11.405Z,3.10
2022-08-02T14:50:39.267Z,4.20
2022-08-02T14:53:12.454Z,4.90
2022-08-02T14:55:45.190Z,2.80
2022-08-02T14:58:12.970Z,5.30
2022-08-02T15:00:41.763Z,4.10
2022-08-02T15:03:11.977Z,3.10
2022-08-02T15:05:40.491Z,4.70
2022-08-02T15:08:08.371Z,5.80
2022-08-02T15:10:36.327Z,8.40
2022-08-02T15:13:04.508Z,4.50
2022-08-02T15:15:32.457Z,3.40
2022-08-02T15:18:14.220Z,5.50
2022-08-02T15:20:47.786Z,3.90
2022-08-02T15:23:37.637Z,7.00
2022-08-02T15:26:06.997Z,2.90
2022-08-02T15:28:35.092Z,4.70
2022-08-02T15:31:02.995Z,5.80
2022-08-02T15:33:33.207Z,3.20
2022-08-02T15:36:00.973Z,5.00
2022-08-02T15:38:28.863Z,2.90
2022-08-02T15:40:56.799Z,2.90
2022-08-02T15:43:24.819Z,4.30
2022-08-02T15:45:52.744Z,3.30
2022-08-02T15:48:20.601Z,4.10
2022-08-02T15:50:48.500Z,3.50
2022-08-02T15:53:16.381Z,3.90
2022-08-02T15:55:53.191Z,5.00
2022-08-02T15:58:31.941Z,3.60
2022-08-02T16:01:00.082Z,3.80
2022-08-02T16:03:28.378Z,4.10
2022-08-02T16:05:56.283Z,2.40
2022-08-02T16:08:24.108Z,3.10
2022-08-02T16:10:51.925Z,4.10
2022-08-02T16:13:49.935Z,9.90
2022-08-02T16:16:34.058Z,5.40
2022-08-02T16:19:46.317Z,5.60
2022-08-02T16:21:53.797Z,2.70
2022-08-02T16:24:22.263Z,5.20
2022-08-02T16:26:53.061Z,5.40
2022-08-02T16:29:20.902Z,3.80
2022-08-02T16:31:48.772Z,6.90
2022-08-02T16:34:21.061Z,9.00
2022-08-02T16:36:50.282Z,6.20
2022-08-02T16:39:18.133Z,4.70
2022-08-02T16:41:51.455Z,5.90
2022-08-02T16:44:29.538Z,4.90
2022-08-02T16:47:00.831Z,4.60
2022-08-02T16:50:07.223Z,3.80
2022-08-02T16:52:19.507Z,4.60
2022-08-02T16:54:49.952Z,3.30
2022-08-02T16:57:19.541Z,3.90
2022-08-02T16:59:58.219Z,7.50
2022-08-02T17:02:27.857Z,4.20
2022-08-02T17:04:56.785Z,6.20
2022-08-02T17:08:07.083Z,8.80
2022-08-02T17:10:12.779Z,4.70
2022-08-02T17:12:40.920Z,5.90
2022-08-02T17:16:01.403Z,4.70
2022-08-02T17:17:58.592Z,4.60
2022-08-02T17:20:26.374Z,5.30
2022-08-02T17:22:54.404Z,3.10
2022-08-02T17:25:24.793Z,5.80
2022-08-02T17:27:55.646Z,3.40
2022-08-02T17:30:31.491Z,4.10
2022-08-02T17:32:59.506Z,4.00
2022-08-02T17:35:43.173Z,6.30
2022-08-02T17:38:26.654Z,2.70
2022-08-02T17:40:56.383Z,4.80
2022-08-02T17:43:29.177Z,4.50
2022-08-02T17:46:02.552Z,3.10
2022-08-02T17:52:47.672Z,4.20
2022-08-02T17:54:45.529Z,8.00
2022-08-02T17:57:14.612Z,7.00
2022-08-02T18:00:03.915Z,4.90
2022-08-02T18:02:36.749Z,8.30
2022-08-02T18:05:06.255Z,5.10
2022-08-02T18:07:50.215Z,8.30
2022-08-02T18:10:29.158Z,7.10
2022-08-02T18:13:03.784Z,4.80
2022-08-02T18:15:35.080Z,6.60
2022-08-02T18:20:40.922Z,10.80
2022-08-02T18:23:13.504Z,11.70
2022-08-02T18:25:46.069Z,12.50
2022-08-02T18:28:19.632Z,11.90
2022-08-02T18:30:55.407Z,12.50
2022-08-02T18:33:56.985Z,9.30
2022-08-02T18:36:24.457Z,11.00
2022-08-02T18:38:53.757Z,11.00
2022-08-02T18:41:22.344Z,13.90
2022-08-02T18:43:52.689Z,7.50
2022-08-02T18:46:20.485Z,10.60
2022-08-02T18:48:48.375Z,11.50
2022-08-02T18:51:19.433Z,17.80
2022-08-02T18:53:52.421Z,11.80
2022-08-02T18:56:24.790Z,11.10
2022-08-02T18:58:55.252Z,14.10
2022-08-02T19:01:31.930Z,16.40
2022-08-02T19:04:08.608Z,16.50
2022-08-02T19:06:37.195Z,16.80
2022-08-02T19:09:13.209Z,13.90
2022-08-02T19:11:47.240Z,15.00
2022-08-02T19:14:24.178Z,14.00
2022-08-02T19:17:53.586Z,20.80
2022-08-02T19:19:48.523Z,18.10
2022-08-02T19:22:20.398Z,18.70
2022-08-02T19:24:51.986Z,13.70
2022-08-02T19:27:25.908Z,13.40
2022-08-02T19:30:07.514Z,13.00
2022-08-02T19:32:39.846Z,13.20
2022-08-02T19:35:19.405Z,11.40
2022-08-02T19:38:09.370Z,12.30
2022-08-02T19:40:42.346Z,12.00
2022-08-02T19:44:26.076Z,14.10
2022-08-02T19:46:00.525Z,11.60
2022-08-02T19:48:29.189Z,14.40
2022-08-02T19:51:00.662Z,13.20
2022-08-02T19:56:25.480Z,21.00
2022-08-02T19:58:59.732Z,22.20
2022-08-02T20:01:39.458Z,15.40
2022-08-02T20:04:12.887Z,13.20
2022-08-02T20:06:47.596Z,25.00
2022-08-02T20:09:21.554Z,23.20
2022-08-02T20:11:54.353Z,22.10
2022-08-02T20:14:27.017Z,49.10
2022-08-02T20:17:00.077Z,44.40
2022-08-02T20:22:00.542Z,29.40
2022-08-02T20:26:59.749Z,28.00
2022-08-02T20:29:42.912Z,25.30
2022-08-02T20:32:14.977Z,32.00
2022-08-02T20:34:43.082Z,25.40
2022-08-02T20:38:00.381Z,22.30
2022-08-02T20:40:09.411Z,18.10
2022-08-02T20:42:37.626Z,35.20
2022-08-02T20:45:13.053Z,40.40
2022-08-02T20:47:52.396Z,56.50
2022-08-02T20:50:41.456Z,58.30
2022-08-02T20:53:23.909Z,48.20
2022-08-02T20:55:55.419Z,48.80
2022-08-02T20:58:28.012Z,40.30
2022-08-02T21:00:59.882Z,30.50
2022-08-02T21:03:38.823Z,40.40
2022-08-02T21:06:15.155Z,33.00
2022-08-02T21:08:46.086Z,35.00
2022-08-02T21:11:14.492Z,31.00
2022-08-02T21:13:46.424Z,24.90
2022-08-02T21:16:18.433Z,22.70
2022-08-02T21:18:51.505Z,23.90
2022-08-02T21:21:19.484Z,20.10
2022-08-02T21:23:54.405Z,29.60
2022-08-02T21:26:27.822Z,33.70
2022-08-02T21:29:00.794Z,33.10
2022-08-02T21:31:36.161Z,55.60
2022-08-02T21:34:21.740Z,46.70
2022-08-02T21:36:50.708Z,42.70
2022-08-02T21:39:21.107Z,38.30
2022-08-02T21:41:49.677Z,29.70
2022-08-02T21:44:20.107Z,30.30
2022-08-02T21:46:53.816Z,22.10
2022-08-02T21:49:40.534Z,20.20
2022-08-02T21:52:09.179Z,12.40
2022-08-02T21:54:40.387Z,15.30
2022-08-02T21:57:15.608Z,35.50
2022-08-02T21:59:46.397Z,29.90
2022-08-02T22:02:16.726Z,89.10
2022-08-02T22:04:47.882Z,102.60
2022-08-02T22:07:23.652Z,68.90
2022-08-02T22:09:53.375Z,50.70
2022-08-02T22:12:25.828Z,61.10
2022-08-02T22:14:55.662Z,21.30
2022-08-02T22:17:50.569Z,17.50
2022-08-02T22:20:20.245Z,15.70
2022-08-02T22:22:51.179Z,11.40
2022-08-02T22:25:27.122Z,11.10
2022-08-02T22:28:37.983Z,9.70
2022-08-02T22:30:57.458Z,10.60
2022-08-02T22:33:47.181Z,10.90
2022-08-02T22:36:30.104Z,10.70
2022-08-02T22:38:58.657Z,12.40
2022-08-02T22:47:11.699Z,10.60
2022-08-02T22:49:53.061Z,12.10
2022-08-02T22:52:23.976Z,9.00
2022-08-02T22:54:52.010Z,9.60
2022-08-02T22:57:30.879Z,9.20
2022-08-02T22:59:06.148Z,15.40
2022-08-02T22:59:09.693Z,13.40
2022-08-02T22:59:09.786Z,12.40
2022-08-02T23:00:00.524Z,9.90
2022-08-02T23:02:28.418Z,11.20
2022-08-02T23:04:58.352Z,9.50
2022-08-02T23:07:26.752Z,9.40
2022-08-02T23:09:55.829Z,10.50
2022-08-02T23:12:24.288Z,12.30
2022-08-02T23:14:52.952Z,11.30
2022-08-02T23:17:39.292Z,9.60
2022-08-02T23:20:15.725Z,9.20
2022-08-02T23:22:43.668Z,8.00
2022-08-02T23:25:12.823Z,8.10
2022-08-02T23:27:49.875Z,11.90
2022-08-02T23:30:19.957Z,9.90
2022-08-02T23:32:48.214Z,9.60
2022-08-02T23:35:17.020Z,8.70
2022-08-02T23:38:00.173Z,9.30
2022-08-02T23:40:40.632Z,7.10
2022-08-02T23:43:14.395Z,9.20
2022-08-02T23:45:45.660Z,8.00
2022-08-02T23:48:14.155Z,7.60
2022-08-02T23:50:42.435Z,6.70
2022-08-02T23:53:10.300Z,11.10
2022-08-02T23:55:38.191Z,10.00
2022-08-02T23:58:05.991Z,6.70
